Weather at Graham Bell Airport / East Mesa Airport [CLOSED]

Public forecast

Using degrees Fahrenheit for public forecast. Weather courtesy of forecast.io.

Closest aviation weather report (METAR) to Graham Bell Airport / East Mesa Airport

Closest report is Albuquerque International Sunport, 4.9 nm (9.1 km) SSW.

2023/04/02 07:52 (retrieved 58 minutes ago)

KABQ 020752Z 07005KT 10SM CLR 08/M12 A3003 RMK AO2 SLP131 T00781122

Closest aviation forecast (TAF) to Graham Bell Airport / East Mesa Airport

Closest forecast is Albuquerque International Sunport, 4.9 nm (9.1 km) SSW.

2023/04/02 06:27 (retrieved 2 hours ago)

TAF KABQ 020524Z 0206/0306 13005KT P6SM FEW200 FM021700 25007KT P6SM SKC FM022100 28019G28KT P6SM SKC FM030300 29009KT P6SM SKC